createdAt,value
2022-11-03T00:00:12.491Z,1.08
2022-11-03T00:02:39.408Z,1.23
2022-11-03T00:05:26.165Z,1.52
2022-11-03T00:07:52.703Z,1.48
2022-11-03T00:10:19.119Z,1.33
2022-11-03T00:12:45.489Z,1.55
2022-11-03T00:15:11.907Z,1.50
2022-11-03T00:17:38.292Z,1.40
2022-11-03T00:20:04.858Z,1.20
2022-11-03T00:22:33.139Z,1.55
2022-11-03T00:24:59.693Z,1.35
2022-11-03T00:27:26.035Z,1.27
2022-11-03T00:29:52.582Z,1.13
2022-11-03T00:32:19.191Z,0.95
2022-11-03T00:34:45.556Z,1.13
2022-11-03T00:37:11.869Z,1.52
2022-11-03T00:39:38.274Z,1.15
2022-11-03T00:42:04.739Z,1.13
2022-11-03T00:44:31.288Z,1.05
2022-11-03T00:46:57.628Z,1.10
2022-11-03T00:49:23.979Z,1.08
2022-11-03T00:51:50.442Z,0.82
2022-11-03T00:54:16.836Z,1.30
2022-11-03T00:56:44.339Z,1.00
2022-11-03T00:59:10.717Z,1.42
2022-11-03T01:01:45.392Z,1.20
2022-11-03T01:04:31.133Z,1.17
2022-11-03T01:06:58.397Z,0.80
2022-11-03T01:09:38.409Z,1.23
2022-11-03T01:12:07.809Z,0.80
2022-11-03T01:14:36.130Z,0.90
2022-11-03T01:17:04.580Z,0.70
2022-11-03T01:19:30.930Z,0.98
2022-11-03T01:21:57.384Z,0.90
2022-11-03T01:24:23.815Z,0.90
2022-11-03T01:26:50.199Z,1.30
2022-11-03T01:29:16.625Z,0.98
2022-11-03T01:31:43.110Z,0.90
2022-11-03T01:34:13.566Z,1.00
2022-11-03T01:36:39.950Z,0.80
2022-11-03T01:39:06.304Z,0.80
2022-11-03T01:41:32.688Z,0.90
2022-11-03T01:44:08.206Z,0.73
2022-11-03T01:46:39.776Z,0.80
2022-11-03T01:49:09.606Z,1.10
2022-11-03T01:51:36.777Z,0.98
2022-11-03T01:54:08.766Z,0.70
2022-11-03T01:56:37.009Z,1.00
2022-11-03T01:59:03.933Z,0.77
2022-11-03T02:01:30.996Z,0.93
2022-11-03T02:04:00.156Z,0.98
2022-11-03T02:06:27.799Z,0.98
2022-11-03T02:09:04.913Z,0.60
2022-11-03T02:11:51.188Z,0.93
2022-11-03T02:14:17.632Z,0.98
2022-11-03T02:16:47.898Z,0.80
2022-11-03T02:21:51.208Z,0.65
2022-11-03T02:24:20.494Z,0.60
2022-11-03T02:26:48.255Z,0.95
2022-11-03T02:29:14.788Z,1.08
2022-11-03T02:31:59.989Z,0.73
2022-11-03T02:34:49.199Z,0.85
2022-11-03T02:37:17.391Z,0.88
2022-11-03T02:39:45.577Z,0.70
2022-11-03T02:42:12.591Z,1.75
2022-11-03T02:44:39.621Z,0.52
2022-11-03T02:47:07.920Z,0.70
2022-11-03T02:49:45.334Z,0.60
2022-11-03T02:52:41.340Z,0.80
2022-11-03T02:55:27.884Z,1.13
2022-11-03T02:58:00.356Z,0.50
2022-11-03T03:00:27.635Z,0.93
2022-11-03T03:02:54.014Z,1.38
2022-11-03T03:05:23.788Z,0.95
2022-11-03T03:07:52.140Z,0.70
2022-11-03T03:10:23.877Z,0.80
2022-11-03T03:12:53.015Z,0.57
2022-11-03T03:15:21.251Z,0.50
2022-11-03T03:17:56.117Z,0.70
2022-11-03T03:20:25.279Z,0.57
2022-11-03T03:22:55.418Z,0.85
2022-11-03T03:25:25.590Z,0.80
2022-11-03T03:27:55.271Z,0.85
2022-11-03T03:30:21.838Z,0.63
2022-11-03T03:32:48.970Z,0.85
2022-11-03T03:35:18.861Z,0.90
2022-11-03T03:37:46.712Z,0.90
2022-11-03T03:40:16.341Z,0.70
2022-11-03T03:42:43.388Z,0.77
2022-11-03T03:45:10.220Z,0.80
2022-11-03T03:47:36.810Z,1.08
2022-11-03T03:50:03.294Z,0.88
2022-11-03T03:52:30.031Z,0.68
2022-11-03T03:54:56.586Z,0.77
2022-11-03T03:57:24.345Z,0.60
2022-11-03T03:59:50.753Z,0.77
2022-11-03T04:02:17.303Z,1.00
2022-11-03T04:04:43.821Z,0.93
2022-11-03T04:07:40.814Z,0.60
2022-11-03T04:10:10.076Z,0.82
2022-11-03T04:12:54.892Z,0.70
2022-11-03T04:15:40.135Z,0.47
2022-11-03T04:18:25.204Z,0.70
2022-11-03T04:21:10.340Z,0.75
2022-11-03T04:23:36.751Z,0.90
2022-11-03T04:26:04.278Z,0.60
2022-11-03T04:28:30.618Z,0.63
2022-11-03T04:30:59.155Z,0.90
2022-11-03T04:33:26.117Z,1.33
2022-11-03T04:35:53.401Z,0.70
2022-11-03T04:38:21.870Z,0.75
2022-11-03T04:40:53.736Z,0.50
2022-11-03T04:43:22.510Z,0.80
2022-11-03T04:45:49.566Z,0.68
2022-11-03T04:48:18.994Z,1.10
2022-11-03T04:50:47.135Z,0.85
2022-11-03T04:53:14.512Z,0.60
2022-11-03T04:55:41.263Z,0.70
2022-11-03T04:58:13.408Z,0.50
2022-11-03T05:00:39.898Z,0.65
2022-11-03T05:03:12.972Z,0.80
2022-11-03T05:05:39.322Z,0.70
2022-11-03T05:08:08.443Z,0.85
2022-11-03T05:10:35.005Z,1.00
2022-11-03T05:13:01.510Z,0.60
2022-11-03T05:15:35.470Z,1.00
2022-11-03T05:18:04.004Z,0.70
2022-11-03T05:20:35.923Z,0.98
2022-11-03T05:23:04.185Z,1.02
2022-11-03T05:25:50.296Z,0.80
2022-11-03T05:28:26.899Z,0.90
2022-11-03T05:30:53.653Z,0.70
2022-11-03T05:33:30.617Z,0.80
2022-11-03T05:35:59.589Z,0.80
2022-11-03T05:38:29.143Z,0.68
2022-11-03T05:40:55.532Z,0.98
2022-11-03T05:43:21.925Z,1.52
2022-11-03T05:45:52.917Z,1.58
2022-11-03T05:48:27.531Z,0.98
2022-11-03T05:50:56.042Z,1.00
2022-11-03T05:53:26.578Z,0.68
2022-11-03T05:55:53.527Z,1.00
2022-11-03T05:58:28.583Z,1.10
2022-11-03T06:00:56.611Z,0.85
2022-11-03T06:03:35.757Z,0.95
2022-11-03T06:06:02.594Z,1.13
2022-11-03T06:08:34.846Z,1.40
2022-11-03T06:11:02.437Z,1.60
2022-11-03T06:13:36.510Z,1.10
2022-11-03T06:16:04.520Z,0.82
2022-11-03T06:18:37.751Z,0.90
2022-11-03T06:21:09.071Z,0.80
2022-11-03T06:23:36.003Z,1.45
2022-11-03T06:26:03.410Z,1.10
2022-11-03T06:28:31.425Z,0.90
2022-11-03T06:30:57.832Z,1.08
2022-11-03T06:33:28.572Z,1.08
2022-11-03T06:35:59.397Z,1.00
2022-11-03T06:38:27.145Z,0.98
2022-11-03T06:40:53.800Z,1.38
2022-11-03T06:43:21.827Z,1.08
2022-11-03T06:45:50.152Z,1.10
2022-11-03T06:48:20.720Z,0.90
2022-11-03T06:50:47.091Z,1.05
2022-11-03T06:53:19.329Z,1.23
2022-11-03T06:55:46.967Z,1.20
2022-11-03T06:58:22.230Z,1.00
2022-11-03T07:00:51.359Z,0.88
2022-11-03T07:03:23.096Z,1.50
2022-11-03T07:08:28.294Z,1.02
2022-11-03T07:11:00.127Z,0.93
2022-11-03T07:13:27.521Z,0.90
2022-11-03T07:15:53.926Z,0.98
2022-11-03T07:18:25.832Z,0.90
2022-11-03T07:20:53.514Z,1.33
2022-11-03T07:23:22.632Z,1.02
2022-11-03T07:25:53.305Z,0.98
2022-11-03T07:28:20.211Z,1.02
2022-11-03T07:30:46.543Z,1.08
2022-11-03T07:33:16.935Z,0.98
2022-11-03T07:38:32.862Z,0.95
2022-11-03T07:40:59.982Z,0.95
2022-11-03T07:43:34.794Z,0.90
2022-11-03T07:46:02.450Z,1.05
2022-11-03T07:48:33.672Z,1.08
2022-11-03T07:53:29.310Z,1.35
2022-11-03T07:55:56.474Z,0.70
2022-11-03T07:58:24.654Z,1.30
2022-11-03T08:00:53.907Z,1.00
2022-11-03T08:03:25.357Z,1.02
2022-11-03T08:05:51.683Z,1.00
2022-11-03T08:08:18.093Z,1.15
2022-11-03T08:10:44.408Z,0.90
2022-11-03T08:13:10.954Z,0.88
2022-11-03T08:15:37.347Z,0.75
2022-11-03T08:18:04.158Z,1.05
2022-11-03T08:20:30.503Z,0.60
2022-11-03T08:23:24.700Z,0.95
2022-11-03T08:25:43.755Z,0.93
2022-11-03T08:28:10.074Z,0.60
2022-11-03T08:30:36.404Z,0.73
2022-11-03T08:33:02.782Z,0.98
2022-11-03T08:35:31.525Z,0.98
2022-11-03T08:38:00.480Z,0.82
2022-11-03T08:40:26.905Z,0.93
2022-11-03T08:42:53.330Z,0.77
2022-11-03T08:45:19.773Z,0.90
2022-11-03T08:47:46.500Z,0.73
2022-11-03T08:50:12.857Z,0.55
2022-11-03T08:52:39.444Z,0.98
2022-11-03T08:55:06.267Z,0.63
2022-11-03T08:57:32.749Z,0.80
2022-11-03T08:59:59.143Z,0.70
2022-11-03T09:02:25.504Z,0.57
2022-11-03T09:04:51.901Z,0.60
2022-11-03T09:07:18.561Z,0.65
2022-11-03T09:12:31.318Z,0.75
2022-11-03T09:14:57.737Z,1.23
2022-11-03T09:17:24.181Z,0.70
2022-11-03T09:19:50.652Z,0.60
2022-11-03T09:22:17.100Z,0.55
2022-11-03T09:24:44.058Z,0.70
2022-11-03T09:27:10.381Z,0.40
2022-11-03T09:30:06.658Z,0.75
2022-11-03T09:32:23.861Z,0.90
2022-11-03T09:34:50.315Z,0.80
2022-11-03T09:37:16.667Z,0.50
2022-11-03T09:39:43.520Z,0.52
2022-11-03T09:42:11.202Z,0.70
2022-11-03T09:44:37.936Z,0.60
2022-11-03T09:47:04.613Z,0.38
2022-11-03T09:49:32.042Z,0.77
2022-11-03T09:51:59.056Z,0.55
2022-11-03T09:54:26.987Z,0.60
2022-11-03T09:56:53.344Z,0.60
2022-11-03T09:59:20.980Z,0.75
2022-11-03T10:01:49.902Z,0.90
2022-11-03T10:04:17.492Z,0.57
2022-11-03T10:06:43.981Z,0.77
2022-11-03T10:09:15.730Z,0.50
2022-11-03T10:11:42.483Z,0.60
2022-11-03T10:14:12.589Z,0.40
2022-11-03T10:16:40.129Z,0.55
2022-11-03T10:19:09.025Z,0.63
2022-11-03T10:21:36.126Z,0.70
2022-11-03T10:24:02.450Z,0.50
2022-11-03T10:26:29.083Z,0.50
2022-11-03T10:29:01.285Z,0.35
2022-11-03T10:31:55.542Z,0.52
2022-11-03T10:34:39.258Z,0.40
2022-11-03T10:37:14.928Z,0.30
2022-11-03T10:39:41.357Z,0.40
2022-11-03T10:42:16.074Z,0.63
2022-11-03T10:44:42.474Z,0.75
2022-11-03T10:47:21.075Z,0.77
2022-11-03T10:49:47.425Z,0.32
2022-11-03T10:52:18.645Z,0.60
2022-11-03T10:54:45.221Z,0.35
2022-11-03T10:57:11.594Z,0.38
2022-11-03T10:59:38.390Z,0.40
2022-11-03T11:02:15.334Z,0.82
2022-11-03T11:04:41.980Z,0.50
2022-11-03T11:07:24.894Z,0.40
2022-11-03T11:09:51.549Z,0.40
2022-11-03T11:12:19.187Z,0.63
2022-11-03T11:14:52.840Z,0.90
2022-11-03T11:17:37.331Z,0.43
2022-11-03T11:20:21.196Z,0.40
2022-11-03T11:22:48.251Z,0.65
2022-11-03T11:25:14.981Z,0.70
2022-11-03T11:27:41.340Z,0.40
2022-11-03T11:30:27.739Z,0.40
2022-11-03T11:32:59.582Z,0.35
2022-11-03T11:35:26.238Z,0.50
2022-11-03T11:37:53.433Z,0.52
2022-11-03T11:40:19.817Z,0.40
2022-11-03T11:43:01.437Z,0.60
2022-11-03T11:45:46.561Z,0.52
2022-11-03T11:48:19.000Z,0.40
2022-11-03T11:50:45.817Z,0.50
2022-11-03T11:53:13.969Z,0.60
2022-11-03T11:55:45.643Z,0.40
2022-11-03T11:58:23.449Z,0.40
2022-11-03T12:00:50.943Z,0.50
2022-11-03T12:03:20.017Z,0.63
2022-11-03T12:05:49.800Z,0.55
2022-11-03T12:08:26.132Z,0.50
2022-11-03T12:10:53.733Z,0.68
2022-11-03T12:13:38.940Z,0.50
2022-11-03T12:16:05.764Z,0.65
2022-11-03T12:18:38.869Z,0.43
2022-11-03T12:21:10.066Z,0.50
2022-11-03T12:23:36.585Z,0.63
2022-11-03T12:26:04.269Z,0.50
2022-11-03T12:28:37.634Z,0.47
2022-11-03T12:31:04.089Z,0.60
2022-11-03T12:33:30.535Z,0.68
2022-11-03T12:35:57.237Z,0.60
2022-11-03T12:38:24.485Z,0.95
2022-11-03T12:40:50.831Z,0.50
2022-11-03T12:43:17.350Z,0.40
2022-11-03T12:45:43.695Z,0.50
2022-11-03T12:48:10.043Z,0.57
2022-11-03T12:50:37.626Z,0.80
2022-11-03T12:53:04.645Z,0.63
2022-11-03T12:55:31.268Z,0.38
2022-11-03T12:57:57.730Z,0.50
2022-11-03T13:00:24.496Z,0.32
2022-11-03T13:02:51.318Z,0.55
2022-11-03T13:05:17.820Z,0.45
2022-11-03T13:07:44.517Z,0.40
2022-11-03T13:10:11.009Z,0.40
2022-11-03T13:12:41.312Z,0.55
2022-11-03T13:15:08.188Z,0.40
2022-11-03T13:17:45.941Z,0.50
2022-11-03T13:20:21.034Z,0.50
2022-11-03T13:22:47.397Z,0.40
2022-11-03T13:25:13.956Z,0.73
2022-11-03T13:27:40.414Z,0.35
2022-11-03T13:30:07.439Z,0.40
2022-11-03T13:32:34.007Z,0.60
2022-11-03T13:35:00.455Z,0.47
2022-11-03T13:37:26.868Z,0.40
2022-11-03T13:39:53.429Z,0.30
2022-11-03T13:42:19.766Z,0.40
2022-11-03T13:44:46.125Z,0.30
2022-11-03T13:47:12.697Z,0.35
2022-11-03T13:52:25.485Z,0.40
2022-11-03T14:00:25.765Z,0.50
2022-11-03T14:05:38.942Z,0.73
2022-11-03T14:08:05.789Z,0.77
2022-11-03T14:10:32.326Z,0.43
2022-11-03T14:12:58.683Z,0.45
2022-11-03T14:15:25.084Z,0.60
2022-11-03T14:17:51.532Z,0.52
2022-11-03T14:20:17.955Z,0.40
2022-11-03T14:22:44.339Z,0.50
2022-11-03T14:25:10.784Z,0.20
2022-11-03T14:27:37.230Z,0.63
2022-11-03T14:30:04.220Z,0.28
2022-11-03T14:32:30.659Z,0.40
2022-11-03T14:34:57.108Z,0.65
2022-11-03T14:37:25.440Z,0.60
2022-11-03T14:39:52.094Z,0.50
2022-11-03T14:42:18.475Z,0.63
2022-11-03T14:44:45.761Z,0.40
2022-11-03T14:47:14.798Z,0.65
2022-11-03T14:49:41.257Z,1.33
2022-11-03T14:52:07.681Z,0.60
2022-11-03T14:54:34.609Z,0.35
2022-11-03T14:57:01.053Z,0.50
2022-11-03T14:59:27.762Z,0.60
2022-11-03T15:01:54.623Z,0.70
2022-11-03T15:04:21.582Z,0.57
2022-11-03T15:06:48.292Z,0.47
2022-11-03T15:09:15.082Z,0.52
2022-11-03T15:11:42.147Z,0.73
2022-11-03T15:14:08.753Z,0.50
2022-11-03T15:16:36.215Z,0.70
2022-11-03T15:19:05.798Z,0.60
2022-11-03T15:21:32.533Z,0.50
2022-11-03T15:26:45.478Z,0.60
2022-11-03T15:29:11.815Z,0.73
2022-11-03T15:31:39.221Z,0.82
2022-11-03T15:34:08.754Z,0.60
2022-11-03T15:36:35.563Z,0.60
2022-11-03T15:39:02.020Z,0.50
2022-11-03T15:41:28.465Z,0.55
2022-11-03T15:43:54.967Z,0.70
2022-11-03T15:46:21.382Z,0.80
2022-11-03T15:48:49.127Z,0.77
2022-11-03T15:51:15.587Z,0.75
2022-11-03T15:53:41.916Z,0.45
2022-11-03T15:56:08.485Z,0.63
2022-11-03T15:58:35.054Z,0.75
2022-11-03T16:01:02.694Z,1.45
2022-11-03T16:03:29.966Z,0.70
2022-11-03T16:05:56.360Z,0.90
2022-11-03T16:08:22.702Z,0.95
2022-11-03T16:10:54.686Z,0.88
2022-11-03T16:13:23.275Z,1.00
2022-11-03T16:15:49.779Z,1.08
2022-11-03T16:18:16.213Z,0.90
2022-11-03T16:20:42.683Z,0.80
2022-11-03T16:23:09.033Z,0.50
2022-11-03T16:25:35.389Z,0.70
2022-11-03T16:28:01.708Z,1.30
2022-11-03T16:30:28.070Z,0.98
2022-11-03T16:32:54.443Z,0.75
2022-11-03T16:35:21.173Z,1.10
2022-11-03T16:37:47.665Z,0.75
2022-11-03T16:40:18.949Z,0.68
2022-11-03T16:42:45.975Z,0.77
2022-11-03T16:45:19.621Z,0.70
2022-11-03T16:47:46.798Z,0.80
2022-11-03T16:50:13.682Z,0.93
2022-11-03T16:52:40.025Z,0.68
2022-11-03T16:55:06.614Z,0.85
2022-11-03T16:57:33.070Z,0.88
2022-11-03T16:59:59.570Z,0.60
2022-11-03T17:02:28.087Z,1.17
2022-11-03T17:04:54.666Z,0.82
2022-11-03T17:07:21.252Z,0.65
2022-11-03T17:09:47.614Z,0.98
2022-11-03T17:12:14.241Z,0.88
2022-11-03T17:14:40.593Z,0.98
2022-11-03T17:17:07.097Z,1.13
2022-11-03T17:19:33.461Z,1.00
2022-11-03T17:21:59.813Z,1.10
2022-11-03T17:24:26.622Z,1.10
2022-11-03T17:26:58.145Z,0.82
2022-11-03T17:29:32.667Z,0.60
2022-11-03T17:31:59.090Z,0.93
2022-11-03T17:34:25.488Z,0.90
2022-11-03T17:36:52.631Z,1.20
2022-11-03T17:39:22.379Z,0.70
2022-11-03T17:41:48.927Z,1.20
2022-11-03T17:44:16.926Z,1.52
2022-11-03T17:46:43.304Z,0.75
2022-11-03T17:49:09.738Z,0.70
2022-11-03T17:51:40.340Z,1.08
2022-11-03T17:54:08.238Z,1.10
2022-11-03T17:56:35.041Z,0.73
2022-11-03T17:59:02.051Z,1.00
2022-11-03T18:01:28.827Z,1.08
2022-11-03T18:03:55.274Z,0.70
2022-11-03T18:06:22.076Z,0.90
2022-11-03T18:08:48.955Z,0.77
2022-11-03T18:11:36.120Z,0.63
2022-11-03T18:14:02.903Z,0.80
2022-11-03T18:16:30.554Z,0.70
2022-11-03T18:18:57.033Z,0.88
2022-11-03T18:21:23.591Z,0.60
2022-11-03T18:23:50.004Z,0.90
2022-11-03T18:26:17.548Z,0.60
2022-11-03T18:28:43.930Z,0.85
2022-11-03T18:31:19.165Z,0.77
2022-11-03T18:33:45.978Z,0.63
2022-11-03T18:36:14.684Z,0.80
2022-11-03T18:38:42.282Z,0.80
2022-11-03T18:41:40.238Z,0.80
2022-11-03T18:44:20.820Z,1.00
2022-11-03T18:46:47.835Z,1.10
2022-11-03T18:49:14.629Z,0.50
2022-11-03T18:51:43.416Z,0.57
2022-11-03T18:54:12.471Z,0.80
2022-11-03T18:56:38.841Z,0.88
2022-11-03T18:59:05.319Z,0.75
2022-11-03T19:01:31.804Z,0.70
2022-11-03T19:03:58.379Z,0.73
2022-11-03T19:06:24.926Z,0.98
2022-11-03T19:08:54.839Z,0.80
2022-11-03T19:11:21.243Z,0.60
2022-11-03T19:13:47.881Z,0.85
2022-11-03T19:16:15.832Z,1.13
2022-11-03T19:18:42.690Z,0.82
2022-11-03T19:21:11.836Z,0.80
2022-11-03T19:23:38.107Z,0.75
2022-11-03T19:26:04.617Z,0.60
2022-11-03T19:28:34.211Z,0.63
2022-11-03T19:31:00.725Z,1.25
2022-11-03T19:33:28.975Z,0.88
2022-11-03T19:35:58.167Z,0.63
2022-11-03T19:38:24.722Z,0.85
2022-11-03T19:41:09.806Z,0.80
2022-11-03T19:43:36.392Z,1.17
2022-11-03T19:46:04.088Z,1.10
2022-11-03T19:48:32.349Z,0.80
2022-11-03T19:50:58.930Z,1.10
2022-11-03T19:53:27.890Z,0.68
2022-11-03T19:55:54.757Z,0.85
2022-11-03T19:58:22.380Z,0.70
2022-11-03T20:00:49.456Z,1.48
2022-11-03T20:03:16.180Z,1.02
2022-11-03T20:05:48.110Z,0.98
2022-11-03T20:08:18.844Z,1.00
2022-11-03T20:10:47.643Z,1.20
2022-11-03T20:13:15.022Z,0.70
2022-11-03T20:15:41.406Z,1.13
2022-11-03T20:18:16.897Z,0.85
2022-11-03T20:20:44.991Z,0.77
2022-11-03T20:23:17.296Z,0.77
2022-11-03T20:25:43.584Z,0.95
2022-11-03T20:28:29.397Z,1.00
2022-11-03T20:30:56.602Z,0.57
2022-11-03T20:33:24.035Z,1.02
2022-11-03T20:35:51.234Z,0.70
2022-11-03T20:38:21.621Z,0.82
2022-11-03T20:40:49.046Z,1.00
2022-11-03T20:43:23.144Z,1.35
2022-11-03T20:45:49.520Z,1.23
2022-11-03T20:48:16.032Z,0.68
2022-11-03T20:50:42.507Z,0.98
2022-11-03T20:53:15.296Z,0.85
2022-11-03T20:55:42.134Z,0.98
2022-11-03T20:58:13.213Z,1.20
2022-11-03T21:00:40.272Z,1.00
2022-11-03T21:03:21.154Z,1.00
2022-11-03T21:05:58.965Z,0.85
2022-11-03T21:08:25.916Z,0.85
2022-11-03T21:10:52.362Z,0.95
2022-11-03T21:13:19.710Z,0.90
2022-11-03T21:16:23.701Z,0.70
2022-11-03T21:19:09.461Z,0.90
2022-11-03T21:21:35.844Z,1.30
2022-11-03T21:24:02.162Z,0.95
2022-11-03T21:26:28.529Z,1.05
2022-11-03T21:28:54.924Z,0.82
2022-11-03T21:31:21.307Z,0.75
2022-11-03T21:33:47.698Z,0.93
2022-11-03T21:36:14.041Z,1.02
2022-11-03T21:38:40.449Z,1.52
2022-11-03T21:41:26.318Z,1.75
2022-11-03T21:44:11.326Z,0.73
2022-11-03T21:46:38.724Z,1.20
2022-11-03T21:49:23.987Z,1.10
2022-11-03T21:51:50.398Z,1.10
2022-11-03T21:54:16.778Z,1.10
2022-11-03T21:56:43.215Z,1.48
2022-11-03T21:59:09.601Z,1.17
2022-11-03T22:01:36.066Z,1.10
2022-11-03T22:04:02.635Z,1.45
2022-11-03T22:06:28.990Z,0.82
2022-11-03T22:08:55.407Z,1.23
2022-11-03T22:11:21.740Z,1.30
2022-11-03T22:13:48.800Z,0.93
2022-11-03T22:16:34.472Z,1.02
2022-11-03T22:19:19.266Z,0.85
2022-11-03T22:22:04.462Z,1.15
2022-11-03T22:24:49.554Z,0.80
2022-11-03T22:27:15.978Z,1.23
2022-11-03T22:30:00.762Z,1.40
2022-11-03T22:32:27.259Z,1.38
2022-11-03T22:35:12.560Z,1.02
2022-11-03T22:40:23.645Z,1.38
2022-11-03T22:43:09.160Z,1.67
2022-11-03T22:45:51.596Z,1.48
2022-11-03T22:48:18.697Z,1.42
2022-11-03T22:50:45.465Z,1.38
2022-11-03T22:53:30.738Z,1.20
2022-11-03T22:55:58.688Z,1.45
2022-11-03T22:58:29.359Z,1.08
2022-11-03T23:00:57.035Z,1.15
2022-11-03T23:03:23.452Z,1.40
2022-11-03T23:05:49.849Z,0.88
2022-11-03T23:08:16.282Z,1.23
2022-11-03T23:10:42.779Z,1.52
2022-11-03T23:13:09.617Z,1.02
2022-11-03T23:15:38.359Z,1.30
2022-11-03T23:18:23.707Z,1.10
2022-11-03T23:21:08.508Z,1.25
2022-11-03T23:23:57.697Z,0.93
2022-11-03T23:26:25.141Z,1.20
2022-11-03T23:28:51.723Z,0.98
2022-11-03T23:31:18.124Z,1.52
2022-11-03T23:33:44.592Z,1.30
2022-11-03T23:36:12.499Z,1.33
2022-11-03T23:38:39.204Z,1.30
2022-11-03T23:41:06.850Z,1.77
2022-11-03T23:43:33.244Z,1.30
2022-11-03T23:46:18.181Z,1.98
2022-11-03T23:48:47.619Z,1.17
2022-11-03T23:51:15.449Z,1.00
2022-11-03T23:53:41.900Z,1.10
2022-11-03T23:56:27.613Z,1.30
2022-11-03T23:58:54.143Z,1.05
